sensor_id;sensor_type;location;lat;lon;timestamp;P1;durP1;ratioP1;P2;durP2;ratioP2
78296;SDS011;67555;47.660;19.622;2023-07-22T00:00:55;3.20;;;2.45;;
78296;SDS011;67555;47.660;19.622;2023-07-22T00:03:21;2.40;;;2.20;;
78296;SDS011;67555;47.660;19.622;2023-07-22T00:05:48;3.05;;;2.60;;
78296;SDS011;67555;47.660;19.622;2023-07-22T00:08:14;2.53;;;2.20;;
78296;SDS011;67555;47.660;19.622;2023-07-22T00:10:40;7.68;;;2.30;;
78296;SDS011;67555;47.660;19.622;2023-07-22T00:13:07;5.45;;;2.45;;
78296;SDS011;67555;47.660;19.622;2023-07-22T00:15:33;5.13;;;2.47;;
78296;SDS011;67555;47.660;19.622;2023-07-22T00:17:58;5.05;;;2.30;;
78296;SDS011;67555;47.660;19.622;2023-07-22T00:20:24;2.80;;;2.30;;
78296;SDS011;67555;47.660;19.622;2023-07-22T00:22:50;2.33;;;2.13;;
78296;SDS011;67555;47.660;19.622;2023-07-22T00:25:17;3.85;;;2.45;;
78296;SDS011;67555;47.660;19.622;2023-07-22T00:27:42;3.60;;;2.55;;
78296;SDS011;67555;47.660;19.622;2023-07-22T00:30:08;4.95;;;2.60;;
78296;SDS011;67555;47.660;19.622;2023-07-22T00:32:34;8.98;;;2.42;;
78296;SDS011;67555;47.660;19.622;2023-07-22T00:35:06;5.00;;;2.33;;
78296;SDS011;67555;47.660;19.622;2023-07-22T00:37:32;2.80;;;2.17;;
78296;SDS011;67555;47.660;19.622;2023-07-22T00:39:58;4.78;;;2.30;;
78296;SDS011;67555;47.660;19.622;2023-07-22T00:42:24;7.57;;;2.35;;
78296;SDS011;67555;47.660;19.622;2023-07-22T00:44:50;3.97;;;2.10;;
78296;SDS011;67555;47.660;19.622;2023-07-22T00:47:16;7.00;;;2.33;;
78296;SDS011;67555;47.660;19.622;2023-07-22T00:49:43;4.00;;;2.63;;
78296;SDS011;67555;47.660;19.622;2023-07-22T00:52:10;2.90;;;2.40;;
78296;SDS011;67555;47.660;19.622;2023-07-22T00:54:35;3.05;;;2.25;;
78296;SDS011;67555;47.660;19.622;2023-07-22T00:57:01;4.43;;;2.80;;
78296;SDS011;67555;47.660;19.622;2023-07-22T00:59:28;2.92;;;2.20;;
78296;SDS011;67555;47.660;19.622;2023-07-22T01:01:53;2.97;;;2.20;;
78296;SDS011;67555;47.660;19.622;2023-07-22T01:04:19;6.60;;;2.53;;
78296;SDS011;67555;47.660;19.622;2023-07-22T01:06:47;5.40;;;2.55;;
78296;SDS011;67555;47.660;19.622;2023-07-22T01:09:14;4.45;;;3.17;;
78296;SDS011;67555;47.660;19.622;2023-07-22T01:11:39;2.70;;;2.28;;
78296;SDS011;67555;47.660;19.622;2023-07-22T01:14:05;5.10;;;2.55;;
78296;SDS011;67555;47.660;19.622;2023-07-22T01:16:33;3.72;;;2.60;;
78296;SDS011;67555;47.660;19.622;2023-07-22T01:18:59;3.30;;;2.30;;
78296;SDS011;67555;47.660;19.622;2023-07-22T01:21:25;3.08;;;2.33;;
78296;SDS011;67555;47.660;19.622;2023-07-22T01:23:52;3.72;;;2.20;;
78296;SDS011;67555;47.660;19.622;2023-07-22T01:26:19;4.85;;;2.60;;
78296;SDS011;67555;47.660;19.622;2023-07-22T01:28:45;5.30;;;2.30;;
78296;SDS011;67555;47.660;19.622;2023-07-22T01:31:11;4.18;;;2.10;;
78296;SDS011;67555;47.660;19.622;2023-07-22T01:33:37;3.80;;;2.88;;
78296;SDS011;67555;47.660;19.622;2023-07-22T01:36:03;2.92;;;2.10;;
78296;SDS011;67555;47.660;19.622;2023-07-22T01:38:28;7.03;;;2.42;;
78296;SDS011;67555;47.660;19.622;2023-07-22T01:40:54;4.65;;;2.58;;
78296;SDS011;67555;47.660;19.622;2023-07-22T01:43:20;5.22;;;2.45;;
78296;SDS011;67555;47.660;19.622;2023-07-22T01:45:46;6.20;;;2.08;;
78296;SDS011;67555;47.660;19.622;2023-07-22T01:48:12;4.70;;;2.45;;
78296;SDS011;67555;47.660;19.622;2023-07-22T01:50:38;4.45;;;2.47;;
78296;SDS011;67555;47.660;19.622;2023-07-22T01:53:04;4.75;;;2.05;;
78296;SDS011;67555;47.660;19.622;2023-07-22T01:55:30;3.63;;;2.25;;
78296;SDS011;67555;47.660;19.622;2023-07-22T01:57:57;2.75;;;2.30;;
78296;SDS011;67555;47.660;19.622;2023-07-22T02:00:23;3.85;;;2.30;;
78296;SDS011;67555;47.660;19.622;2023-07-22T02:02:49;6.03;;;2.10;;
78296;SDS011;67555;47.660;19.622;2023-07-22T02:05:15;5.10;;;2.45;;
78296;SDS011;67555;47.660;19.622;2023-07-22T02:07:41;4.82;;;2.67;;
78296;SDS011;67555;47.660;19.622;2023-07-22T02:10:07;4.85;;;2.67;;
78296;SDS011;67555;47.660;19.622;2023-07-22T02:12:34;3.05;;;2.10;;
78296;SDS011;67555;47.660;19.622;2023-07-22T02:15:00;3.15;;;2.72;;
78296;SDS011;67555;47.660;19.622;2023-07-22T02:17:27;5.25;;;2.53;;
78296;SDS011;67555;47.660;19.622;2023-07-22T02:19:53;3.42;;;2.70;;
78296;SDS011;67555;47.660;19.622;2023-07-22T02:22:19;4.68;;;2.45;;
78296;SDS011;67555;47.660;19.622;2023-07-22T02:24:45;4.25;;;2.40;;
78296;SDS011;67555;47.660;19.622;2023-07-22T02:27:11;2.50;;;2.15;;
78296;SDS011;67555;47.660;19.622;2023-07-22T02:29:37;3.50;;;2.40;;
78296;SDS011;67555;47.660;19.622;2023-07-22T02:32:02;4.00;;;2.30;;
78296;SDS011;67555;47.660;19.622;2023-07-22T02:34:28;3.67;;;2.53;;
78296;SDS011;67555;47.660;19.622;2023-07-22T02:36:54;2.85;;;2.50;;
78296;SDS011;67555;47.660;19.622;2023-07-22T02:39:20;4.05;;;2.53;;
78296;SDS011;67555;47.660;19.622;2023-07-22T02:41:46;3.85;;;2.05;;
78296;SDS011;67555;47.660;19.622;2023-07-22T02:44:11;3.53;;;2.63;;
78296;SDS011;67555;47.660;19.622;2023-07-22T02:46:37;2.75;;;2.40;;
78296;SDS011;67555;47.660;19.622;2023-07-22T02:49:03;2.88;;;2.47;;
78296;SDS011;67555;47.660;19.622;2023-07-22T02:51:30;4.07;;;2.72;;
78296;SDS011;67555;47.660;19.622;2023-07-22T02:53:56;4.53;;;2.50;;
78296;SDS011;67555;47.660;19.622;2023-07-22T02:56:21;5.18;;;2.85;;
78296;SDS011;67555;47.660;19.622;2023-07-22T02:58:48;5.00;;;2.97;;
78296;SDS011;67555;47.660;19.622;2023-07-22T03:01:15;2.83;;;2.50;;
78296;SDS011;67555;47.660;19.622;2023-07-22T03:03:41;7.68;;;3.17;;
78296;SDS011;67555;47.660;19.622;2023-07-22T03:06:06;4.82;;;2.97;;
78296;SDS011;67555;47.660;19.622;2023-07-22T03:08:34;3.92;;;2.70;;
78296;SDS011;67555;47.660;19.622;2023-07-22T03:11:00;3.88;;;2.53;;
78296;SDS011;67555;47.660;19.622;2023-07-22T03:13:26;3.33;;;2.38;;
78296;SDS011;67555;47.660;19.622;2023-07-22T03:15:56;4.72;;;2.72;;
78296;SDS011;67555;47.660;19.622;2023-07-22T03:18:22;2.92;;;2.65;;
78296;SDS011;67555;47.660;19.622;2023-07-22T03:20:48;2.92;;;2.50;;
78296;SDS011;67555;47.660;19.622;2023-07-22T03:23:14;4.38;;;2.78;;
78296;SDS011;67555;47.660;19.622;2023-07-22T03:25:40;2.80;;;2.53;;
78296;SDS011;67555;47.660;19.622;2023-07-22T03:28:07;2.55;;;2.28;;
78296;SDS011;67555;47.660;19.622;2023-07-22T03:30:33;4.68;;;2.63;;
78296;SDS011;67555;47.660;19.622;2023-07-22T03:32:59;5.38;;;2.70;;
78296;SDS011;67555;47.660;19.622;2023-07-22T03:35:25;3.90;;;2.60;;
78296;SDS011;67555;47.660;19.622;2023-07-22T03:37:51;5.07;;;2.70;;
78296;SDS011;67555;47.660;19.622;2023-07-22T03:40:17;3.33;;;2.47;;
78296;SDS011;67555;47.660;19.622;2023-07-22T03:42:50;2.70;;;2.38;;
78296;SDS011;67555;47.660;19.622;2023-07-22T03:45:17;2.80;;;2.40;;
78296;SDS011;67555;47.660;19.622;2023-07-22T03:47:47;4.07;;;2.58;;
78296;SDS011;67555;47.660;19.622;2023-07-22T03:50:16;2.85;;;2.50;;
78296;SDS011;67555;47.660;19.622;2023-07-22T03:52:41;3.25;;;2.60;;
78296;SDS011;67555;47.660;19.622;2023-07-22T03:55:07;4.57;;;2.50;;
78296;SDS011;67555;47.660;19.622;2023-07-22T03:57:33;3.75;;;2.45;;
78296;SDS011;67555;47.660;19.622;2023-07-22T03:59:59;3.80;;;2.53;;
78296;SDS011;67555;47.660;19.622;2023-07-22T04:02:26;2.97;;;2.33;;
78296;SDS011;67555;47.660;19.622;2023-07-22T04:04:53;4.20;;;3.13;;
78296;SDS011;67555;47.660;19.622;2023-07-22T04:07:19;2.80;;;2.50;;
78296;SDS011;67555;47.660;19.622;2023-07-22T04:09:46;2.97;;;2.50;;
78296;SDS011;67555;47.660;19.622;2023-07-22T04:12:12;3.22;;;2.72;;
78296;SDS011;67555;47.660;19.622;2023-07-22T04:14:38;4.60;;;2.65;;
78296;SDS011;67555;47.660;19.622;2023-07-22T04:17:04;4.30;;;2.70;;
78296;SDS011;67555;47.660;19.622;2023-07-22T04:19:30;4.35;;;2.88;;
78296;SDS011;67555;47.660;19.622;2023-07-22T04:21:56;5.03;;;3.00;;
78296;SDS011;67555;47.660;19.622;2023-07-22T04:24:21;5.00;;;2.83;;
78296;SDS011;67555;47.660;19.622;2023-07-22T04:26:48;3.20;;;2.78;;
78296;SDS011;67555;47.660;19.622;2023-07-22T04:29:13;3.53;;;3.10;;
78296;SDS011;67555;47.660;19.622;2023-07-22T04:31:39;8.20;;;3.05;;
78296;SDS011;67555;47.660;19.622;2023-07-22T04:34:05;2.90;;;2.60;;
78296;SDS011;67555;47.660;19.622;2023-07-22T04:36:32;6.65;;;2.95;;
78296;SDS011;67555;47.660;19.622;2023-07-22T04:38:57;4.10;;;3.17;;
78296;SDS011;67555;47.660;19.622;2023-07-22T04:41:23;5.15;;;3.28;;
78296;SDS011;67555;47.660;19.622;2023-07-22T04:43:49;3.17;;;2.80;;
78296;SDS011;67555;47.660;19.622;2023-07-22T04:46:16;3.58;;;2.80;;
78296;SDS011;67555;47.660;19.622;2023-07-22T04:48:42;4.55;;;3.28;;
78296;SDS011;67555;47.660;19.622;2023-07-22T04:51:08;4.95;;;3.03;;
78296;SDS011;67555;47.660;19.622;2023-07-22T04:53:33;4.03;;;3.22;;
78296;SDS011;67555;47.660;19.622;2023-07-22T04:55:59;5.63;;;3.40;;
78296;SDS011;67555;47.660;19.622;2023-07-22T04:58:25;4.10;;;2.90;;
78296;SDS011;67555;47.660;19.622;2023-07-22T05:00:51;7.30;;;2.95;;
78296;SDS011;67555;47.660;19.622;2023-07-22T05:03:17;3.35;;;2.70;;
78296;SDS011;67555;47.660;19.622;2023-07-22T05:05:43;4.47;;;3.42;;
78296;SDS011;67555;47.660;19.622;2023-07-22T05:08:09;4.20;;;2.80;;
78296;SDS011;67555;47.660;19.622;2023-07-22T05:10:39;3.55;;;3.00;;
78296;SDS011;67555;47.660;19.622;2023-07-22T05:13:05;3.67;;;2.83;;
78296;SDS011;67555;47.660;19.622;2023-07-22T05:15:30;5.10;;;2.80;;
78296;SDS011;67555;47.660;19.622;2023-07-22T05:17:56;3.10;;;2.80;;
78296;SDS011;67555;47.660;19.622;2023-07-22T05:20:22;3.65;;;3.15;;
78296;SDS011;67555;47.660;19.622;2023-07-22T05:22:48;3.58;;;3.28;;
78296;SDS011;67555;47.660;19.622;2023-07-22T05:25:13;4.18;;;3.22;;
78296;SDS011;67555;47.660;19.622;2023-07-22T05:27:39;3.25;;;2.90;;
78296;SDS011;67555;47.660;19.622;2023-07-22T05:30:05;3.60;;;2.90;;
78296;SDS011;67555;47.660;19.622;2023-07-22T05:32:32;4.30;;;3.90;;
78296;SDS011;67555;47.660;19.622;2023-07-22T05:34:57;3.50;;;3.20;;
78296;SDS011;67555;47.660;19.622;2023-07-22T05:37:23;4.55;;;3.28;;
78296;SDS011;67555;47.660;19.622;2023-07-22T05:39:49;4.43;;;3.22;;
78296;SDS011;67555;47.660;19.622;2023-07-22T05:42:16;3.78;;;3.42;;
78296;SDS011;67555;47.660;19.622;2023-07-22T05:44:42;6.00;;;4.10;;
78296;SDS011;67555;47.660;19.622;2023-07-22T05:47:08;4.28;;;3.75;;
78296;SDS011;67555;47.660;19.622;2023-07-22T05:49:34;5.18;;;4.32;;
78296;SDS011;67555;47.660;19.622;2023-07-22T05:52:00;5.45;;;3.63;;
78296;SDS011;67555;47.660;19.622;2023-07-22T05:54:26;4.32;;;3.92;;
78296;SDS011;67555;47.660;19.622;2023-07-22T05:56:51;7.75;;;3.90;;
78296;SDS011;67555;47.660;19.622;2023-07-22T05:59:17;4.93;;;4.03;;
78296;SDS011;67555;47.660;19.622;2023-07-22T06:01:43;4.97;;;4.18;;
78296;SDS011;67555;47.660;19.622;2023-07-22T06:04:08;4.30;;;3.88;;
78296;SDS011;67555;47.660;19.622;2023-07-22T06:06:34;4.68;;;4.10;;
78296;SDS011;67555;47.660;19.622;2023-07-22T06:09:00;4.85;;;3.72;;
78296;SDS011;67555;47.660;19.622;2023-07-22T06:11:26;4.82;;;4.15;;
78296;SDS011;67555;47.660;19.622;2023-07-22T06:13:53;4.22;;;3.78;;
78296;SDS011;67555;47.660;19.622;2023-07-22T06:16:19;5.78;;;3.55;;
78296;SDS011;67555;47.660;19.622;2023-07-22T06:18:45;5.97;;;4.38;;
78296;SDS011;67555;47.660;19.622;2023-07-22T06:21:10;3.92;;;3.53;;
78296;SDS011;67555;47.660;19.622;2023-07-22T06:23:36;3.83;;;3.42;;
78296;SDS011;67555;47.660;19.622;2023-07-22T06:26:02;3.95;;;3.55;;
78296;SDS011;67555;47.660;19.622;2023-07-22T06:28:28;3.97;;;3.58;;
78296;SDS011;67555;47.660;19.622;2023-07-22T06:30:53;3.83;;;3.33;;
78296;SDS011;67555;47.660;19.622;2023-07-22T06:33:19;5.05;;;4.20;;
78296;SDS011;67555;47.660;19.622;2023-07-22T06:35:45;4.53;;;3.40;;
78296;SDS011;67555;47.660;19.622;2023-07-22T06:38:11;4.55;;;3.70;;
78296;SDS011;67555;47.660;19.622;2023-07-22T06:40:36;4.47;;;3.75;;
78296;SDS011;67555;47.660;19.622;2023-07-22T06:43:02;4.10;;;3.70;;
78296;SDS011;67555;47.660;19.622;2023-07-22T06:45:28;4.93;;;3.67;;
78296;SDS011;67555;47.660;19.622;2023-07-22T06:47:53;5.72;;;3.47;;
78296;SDS011;67555;47.660;19.622;2023-07-22T06:50:21;4.85;;;3.70;;
78296;SDS011;67555;47.660;19.622;2023-07-22T06:52:46;4.63;;;3.85;;
78296;SDS011;67555;47.660;19.622;2023-07-22T06:55:12;3.55;;;3.25;;
78296;SDS011;67555;47.660;19.622;2023-07-22T06:57:37;5.72;;;3.75;;
78296;SDS011;67555;47.660;19.622;2023-07-22T07:00:04;4.28;;;3.83;;
78296;SDS011;67555;47.660;19.622;2023-07-22T07:02:30;3.58;;;3.28;;
78296;SDS011;67555;47.660;19.622;2023-07-22T07:04:56;5.20;;;4.32;;
78296;SDS011;67555;47.660;19.622;2023-07-22T07:07:22;5.07;;;4.57;;
78296;SDS011;67555;47.660;19.622;2023-07-22T07:09:47;5.00;;;4.50;;
78296;SDS011;67555;47.660;19.622;2023-07-22T07:12:13;4.88;;;4.22;;
78296;SDS011;67555;47.660;19.622;2023-07-22T07:14:39;4.50;;;3.88;;
78296;SDS011;67555;47.660;19.622;2023-07-22T07:17:04;4.43;;;4.03;;
78296;SDS011;67555;47.660;19.622;2023-07-22T07:19:30;4.70;;;4.00;;
78296;SDS011;67555;47.660;19.622;2023-07-22T07:21:56;3.72;;;3.38;;
78296;SDS011;67555;47.660;19.622;2023-07-22T07:24:22;4.25;;;3.85;;
78296;SDS011;67555;47.660;19.622;2023-07-22T07:26:47;5.25;;;3.60;;
78296;SDS011;67555;47.660;19.622;2023-07-22T07:29:13;6.25;;;3.92;;
78296;SDS011;67555;47.660;19.622;2023-07-22T07:31:39;4.15;;;3.65;;
78296;SDS011;67555;47.660;19.622;2023-07-22T07:34:04;5.07;;;3.83;;
78296;SDS011;67555;47.660;19.622;2023-07-22T07:36:31;4.50;;;4.10;;
78296;SDS011;67555;47.660;19.622;2023-07-22T07:38:59;4.70;;;4.22;;
78296;SDS011;67555;47.660;19.622;2023-07-22T07:41:25;4.78;;;3.60;;
78296;SDS011;67555;47.660;19.622;2023-07-22T07:43:51;3.17;;;2.88;;
78296;SDS011;67555;47.660;19.622;2023-07-22T07:46:19;3.95;;;3.20;;
78296;SDS011;67555;47.660;19.622;2023-07-22T07:48:53;5.68;;;4.20;;
78296;SDS011;67555;47.660;19.622;2023-07-22T07:51:20;4.20;;;3.80;;
78296;SDS011;67555;47.660;19.622;2023-07-22T07:56:15;5.07;;;4.00;;
78296;SDS011;67555;47.660;19.622;2023-07-22T07:58:43;4.35;;;3.50;;
78296;SDS011;67555;47.660;19.622;2023-07-22T08:01:09;4.97;;;3.25;;
78296;SDS011;67555;47.660;19.622;2023-07-22T08:03:36;4.68;;;4.05;;
78296;SDS011;67555;47.660;19.622;2023-07-22T08:06:03;4.40;;;3.85;;
78296;SDS011;67555;47.660;19.622;2023-07-22T08:08:29;3.97;;;3.58;;
78296;SDS011;67555;47.660;19.622;2023-07-22T08:10:58;4.03;;;3.63;;
78296;SDS011;67555;47.660;19.622;2023-07-22T08:13:40;3.58;;;3.08;;
78296;SDS011;67555;47.660;19.622;2023-07-22T08:16:07;5.80;;;3.85;;
78296;SDS011;67555;47.660;19.622;2023-07-22T08:18:35;5.07;;;3.30;;
78296;SDS011;67555;47.660;19.622;2023-07-22T08:21:02;4.20;;;3.35;;
78296;SDS011;67555;47.660;19.622;2023-07-22T08:23:29;5.07;;;3.35;;
78296;SDS011;67555;47.660;19.622;2023-07-22T08:25:55;4.00;;;3.15;;
78296;SDS011;67555;47.660;19.622;2023-07-22T08:28:21;4.13;;;3.72;;
78296;SDS011;67555;47.660;19.622;2023-07-22T08:30:50;5.63;;;3.55;;
78296;SDS011;67555;47.660;19.622;2023-07-22T08:33:18;2.97;;;2.67;;
78296;SDS011;67555;47.660;19.622;2023-07-22T08:35:44;3.63;;;2.80;;
78296;SDS011;67555;47.660;19.622;2023-07-22T08:38:12;3.35;;;3.05;;
78296;SDS011;67555;47.660;19.622;2023-07-22T08:40:39;6.18;;;3.67;;
78296;SDS011;67555;47.660;19.622;2023-07-22T08:43:07;4.35;;;3.60;;
78296;SDS011;67555;47.660;19.622;2023-07-22T08:45:34;2.90;;;2.58;;
78296;SDS011;67555;47.660;19.622;2023-07-22T08:48:03;3.67;;;3.00;;
78296;SDS011;67555;47.660;19.622;2023-07-22T08:53:14;3.30;;;3.00;;
78296;SDS011;67555;47.660;19.622;2023-07-22T08:55:41;3.35;;;3.03;;
78296;SDS011;67555;47.660;19.622;2023-07-22T08:58:10;3.30;;;3.00;;
78296;SDS011;67555;47.660;19.622;2023-07-22T09:00:36;3.63;;;3.08;;
78296;SDS011;67555;47.660;19.622;2023-07-22T09:03:03;5.35;;;3.28;;
78296;SDS011;67555;47.660;19.622;2023-07-22T09:05:31;3.30;;;2.88;;
78296;SDS011;67555;47.660;19.622;2023-07-22T09:08:03;4.65;;;2.90;;
78296;SDS011;67555;47.660;19.622;2023-07-22T09:10:32;3.80;;;3.40;;
78296;SDS011;67555;47.660;19.622;2023-07-22T09:12:59;3.65;;;3.10;;
78296;SDS011;67555;47.660;19.622;2023-07-22T09:15:27;4.45;;;3.13;;
78296;SDS011;67555;47.660;19.622;2023-07-22T09:17:53;4.15;;;3.10;;
78296;SDS011;67555;47.660;19.622;2023-07-22T09:20:19;3.50;;;2.90;;
78296;SDS011;67555;47.660;19.622;2023-07-22T09:22:46;3.78;;;2.92;;
78296;SDS011;67555;47.660;19.622;2023-07-22T09:25:13;2.55;;;2.30;;
78296;SDS011;67555;47.660;19.622;2023-07-22T09:27:50;4.55;;;2.90;;
78296;SDS011;67555;47.660;19.622;2023-07-22T09:35:18;2.45;;;2.25;;
78296;SDS011;67555;47.660;19.622;2023-07-22T09:37:44;3.33;;;2.88;;
78296;SDS011;67555;47.660;19.622;2023-07-22T09:40:13;2.88;;;2.55;;
78296;SDS011;67555;47.660;19.622;2023-07-22T09:42:47;3.25;;;2.67;;
78296;SDS011;67555;47.660;19.622;2023-07-22T09:45:17;3.33;;;2.80;;
78296;SDS011;67555;47.660;19.622;2023-07-22T09:47:45;3.13;;;2.40;;
78296;SDS011;67555;47.660;19.622;2023-07-22T09:50:13;2.80;;;2.55;;
78296;SDS011;67555;47.660;19.622;2023-07-22T09:52:44;3.08;;;2.35;;
78296;SDS011;67555;47.660;19.622;2023-07-22T09:55:11;2.88;;;2.55;;
78296;SDS011;67555;47.660;19.622;2023-07-22T09:57:38;2.75;;;2.42;;
78296;SDS011;67555;47.660;19.622;2023-07-22T10:00:10;4.22;;;2.10;;
78296;SDS011;67555;47.660;19.622;2023-07-22T10:02:37;2.70;;;2.30;;
78296;SDS011;67555;47.660;19.622;2023-07-22T10:05:08;2.47;;;2.28;;
78296;SDS011;67555;47.660;19.622;2023-07-22T10:07:48;2.58;;;2.17;;
78296;SDS011;67555;47.660;19.622;2023-07-22T10:10:21;2.55;;;2.33;;
78296;SDS011;67555;47.660;19.622;2023-07-22T10:12:50;2.55;;;2.30;;
78296;SDS011;67555;47.660;19.622;2023-07-22T10:15:16;2.47;;;2.05;;
78296;SDS011;67555;47.660;19.622;2023-07-22T10:17:45;2.78;;;2.45;;
78296;SDS011;67555;47.660;19.622;2023-07-22T10:20:12;2.58;;;2.20;;
78296;SDS011;67555;47.660;19.622;2023-07-22T10:22:44;5.22;;;2.50;;
78296;SDS011;67555;47.660;19.622;2023-07-22T10:25:12;1.98;;;1.77;;
78296;SDS011;67555;47.660;19.622;2023-07-22T10:27:40;3.22;;;2.33;;
78296;SDS011;67555;47.660;19.622;2023-07-22T10:30:10;2.42;;;2.00;;
78296;SDS011;67555;47.660;19.622;2023-07-22T10:32:38;2.28;;;2.00;;
78296;SDS011;67555;47.660;19.622;2023-07-22T10:35:11;2.53;;;2.20;;
78296;SDS011;67555;47.660;19.622;2023-07-22T10:37:46;2.58;;;1.95;;
78296;SDS011;67555;47.660;19.622;2023-07-22T10:42:53;1.90;;;1.75;;
78296;SDS011;67555;47.660;19.622;2023-07-22T10:45:28;2.00;;;1.70;;
78296;SDS011;67555;47.660;19.622;2023-07-22T10:48:07;2.05;;;1.85;;
78296;SDS011;67555;47.660;19.622;2023-07-22T10:53:12;1.77;;;1.50;;
78296;SDS011;67555;47.660;19.622;2023-07-22T11:01:22;1.52;;;1.33;;
78296;SDS011;67555;47.660;19.622;2023-07-22T11:04:05;1.60;;;1.50;;
78296;SDS011;67555;47.660;19.622;2023-07-22T11:06:32;2.03;;;1.40;;
78296;SDS011;67555;47.660;19.622;2023-07-22T11:08:58;1.92;;;1.70;;
78296;SDS011;67555;47.660;19.622;2023-07-22T11:16:47;1.58;;;1.48;;
78296;SDS011;67555;47.660;19.622;2023-07-22T11:19:17;1.77;;;1.60;;
78296;SDS011;67555;47.660;19.622;2023-07-22T11:21:51;2.17;;;1.75;;
78296;SDS011;67555;47.660;19.622;2023-07-22T11:24:19;3.10;;;1.67;;
78296;SDS011;67555;47.660;19.622;2023-07-22T11:26:46;1.88;;;1.40;;
78296;SDS011;67555;47.660;19.622;2023-07-22T11:29:12;1.70;;;1.38;;
78296;SDS011;67555;47.660;19.622;2023-07-22T11:31:43;2.05;;;1.63;;
78296;SDS011;67555;47.660;19.622;2023-07-22T11:34:14;1.65;;;1.33;;
78296;SDS011;67555;47.660;19.622;2023-07-22T11:36:41;1.58;;;1.40;;
78296;SDS011;67555;47.660;19.622;2023-07-22T11:39:08;2.45;;;1.60;;
78296;SDS011;67555;47.660;19.622;2023-07-22T11:41:36;1.83;;;1.58;;
78296;SDS011;67555;47.660;19.622;2023-07-22T11:44:03;3.33;;;1.77;;
78296;SDS011;67555;47.660;19.622;2023-07-22T11:46:34;2.25;;;1.70;;
78296;SDS011;67555;47.660;19.622;2023-07-22T11:49:00;1.63;;;1.40;;
78296;SDS011;67555;47.660;19.622;2023-07-22T11:51:26;2.35;;;1.35;;
78296;SDS011;67555;47.660;19.622;2023-07-22T11:53:53;2.72;;;1.52;;
78296;SDS011;67555;47.660;19.622;2023-07-22T11:56:24;1.63;;;1.52;;
78296;SDS011;67555;47.660;19.622;2023-07-22T11:58:54;1.80;;;1.55;;
78296;SDS011;67555;47.660;19.622;2023-07-22T12:01:21;2.13;;;1.20;;
78296;SDS011;67555;47.660;19.622;2023-07-22T12:03:47;1.77;;;1.50;;
78296;SDS011;67555;47.660;19.622;2023-07-22T12:06:14;1.42;;;1.30;;
78296;SDS011;67555;47.660;19.622;2023-07-22T12:08:47;1.70;;;1.40;;
78296;SDS011;67555;47.660;19.622;2023-07-22T12:13:43;1.58;;;1.48;;
78296;SDS011;67555;47.660;19.622;2023-07-22T12:18:46;2.30;;;1.30;;
78296;SDS011;67555;47.660;19.622;2023-07-22T12:21:12;1.48;;;1.38;;
78296;SDS011;67555;47.660;19.622;2023-07-22T12:23:39;1.90;;;1.15;;
78296;SDS011;67555;47.660;19.622;2023-07-22T12:26:07;1.88;;;1.30;;
78296;SDS011;67555;47.660;19.622;2023-07-22T12:28:33;1.65;;;1.40;;
78296;SDS011;67555;47.660;19.622;2023-07-22T12:30:59;1.38;;;1.27;;
78296;SDS011;67555;47.660;19.622;2023-07-22T12:33:25;1.33;;;1.02;;
78296;SDS011;67555;47.660;19.622;2023-07-22T12:35:55;1.98;;;1.23;;
78296;SDS011;67555;47.660;19.622;2023-07-22T12:38:22;1.30;;;1.20;;
78296;SDS011;67555;47.660;19.622;2023-07-22T12:40:48;1.48;;;1.10;;
78296;SDS011;67555;47.660;19.622;2023-07-22T12:43:14;1.55;;;1.23;;
78296;SDS011;67555;47.660;19.622;2023-07-22T12:45:39;1.30;;;1.20;;
78296;SDS011;67555;47.660;19.622;2023-07-22T12:48:05;1.13;;;1.02;;
78296;SDS011;67555;47.660;19.622;2023-07-22T12:50:32;1.48;;;1.30;;
78296;SDS011;67555;47.660;19.622;2023-07-22T12:53:01;1.40;;;1.10;;
78296;SDS011;67555;47.660;19.622;2023-07-22T12:55:28;1.27;;;1.00;;
78296;SDS011;67555;47.660;19.622;2023-07-22T12:57:54;1.02;;;0.98;;
78296;SDS011;67555;47.660;19.622;2023-07-22T13:00:20;1.20;;;1.10;;
78296;SDS011;67555;47.660;19.622;2023-07-22T13:02:46;1.30;;;1.20;;
78296;SDS011;67555;47.660;19.622;2023-07-22T13:05:12;0.80;;;0.80;;
78296;SDS011;67555;47.660;19.622;2023-07-22T13:07:39;1.35;;;1.02;;
78296;SDS011;67555;47.660;19.622;2023-07-22T13:10:05;2.10;;;1.20;;
78296;SDS011;67555;47.660;19.622;2023-07-22T13:12:36;1.10;;;1.00;;
78296;SDS011;67555;47.660;19.622;2023-07-22T13:15:07;1.23;;;1.10;;
78296;SDS011;67555;47.660;19.622;2023-07-22T13:17:33;1.40;;;1.27;;
78296;SDS011;67555;47.660;19.622;2023-07-22T13:19:59;0.85;;;0.85;;
78296;SDS011;67555;47.660;19.622;2023-07-22T13:22:24;1.13;;;1.02;;
78296;SDS011;67555;47.660;19.622;2023-07-22T13:24:50;0.93;;;0.80;;
78296;SDS011;67555;47.660;19.622;2023-07-22T13:27:16;1.20;;;1.10;;
78296;SDS011;67555;47.660;19.622;2023-07-22T13:29:42;0.98;;;0.95;;
78296;SDS011;67555;47.660;19.622;2023-07-22T13:32:07;1.90;;;1.05;;
78296;SDS011;67555;47.660;19.622;2023-07-22T13:34:34;1.15;;;1.05;;
78296;SDS011;67555;47.660;19.622;2023-07-22T13:37:00;0.75;;;0.75;;
78296;SDS011;67555;47.660;19.622;2023-07-22T13:39:27;0.80;;;0.80;;
78296;SDS011;67555;47.660;19.622;2023-07-22T13:41:53;1.00;;;1.00;;
78296;SDS011;67555;47.660;19.622;2023-07-22T13:44:19;1.08;;;1.00;;
78296;SDS011;67555;47.660;19.622;2023-07-22T13:46:44;1.10;;;1.00;;
78296;SDS011;67555;47.660;19.622;2023-07-22T13:49:10;1.23;;;1.00;;
78296;SDS011;67555;47.660;19.622;2023-07-22T13:51:36;1.40;;;1.23;;
78296;SDS011;67555;47.660;19.622;2023-07-22T13:54:02;1.17;;;1.08;;
78296;SDS011;67555;47.660;19.622;2023-07-22T13:56:27;0.90;;;0.90;;
78296;SDS011;67555;47.660;19.622;2023-07-22T13:58:53;0.80;;;0.80;;
78296;SDS011;67555;47.660;19.622;2023-07-22T14:01:20;1.17;;;1.08;;
78296;SDS011;67555;47.660;19.622;2023-07-22T14:03:46;1.23;;;1.10;;
78296;SDS011;67555;47.660;19.622;2023-07-22T14:06:11;0.80;;;0.80;;
78296;SDS011;67555;47.660;19.622;2023-07-22T14:08:37;1.95;;;1.25;;
78296;SDS011;67555;47.660;19.622;2023-07-22T14:11:04;1.00;;;0.90;;
78296;SDS011;67555;47.660;19.622;2023-07-22T14:13:30;2.50;;;1.08;;
78296;SDS011;67555;47.660;19.622;2023-07-22T14:15:56;1.35;;;1.25;;
78296;SDS011;67555;47.660;19.622;2023-07-22T14:18:21;1.23;;;1.13;;
78296;SDS011;67555;47.660;19.622;2023-07-22T14:20:47;1.13;;;0.93;;
78296;SDS011;67555;47.660;19.622;2023-07-22T14:23:13;1.10;;;1.00;;
78296;SDS011;67555;47.660;19.622;2023-07-22T14:25:39;2.15;;;1.27;;
78296;SDS011;67555;47.660;19.622;2023-07-22T14:28:05;1.00;;;0.90;;
78296;SDS011;67555;47.660;19.622;2023-07-22T14:30:31;0.98;;;0.98;;
78296;SDS011;67555;47.660;19.622;2023-07-22T14:32:57;1.10;;;1.00;;
78296;SDS011;67555;47.660;19.622;2023-07-22T14:35:23;1.15;;;1.02;;
78296;SDS011;67555;47.660;19.622;2023-07-22T14:37:49;1.20;;;1.10;;
78296;SDS011;67555;47.660;19.622;2023-07-22T14:40:16;1.30;;;1.17;;
78296;SDS011;67555;47.660;19.622;2023-07-22T14:42:42;0.88;;;0.88;;
78296;SDS011;67555;47.660;19.622;2023-07-22T14:45:08;0.95;;;0.95;;
78296;SDS011;67555;47.660;19.622;2023-07-22T14:47:34;0.98;;;0.88;;
78296;SDS011;67555;47.660;19.622;2023-07-22T14:50:00;0.77;;;0.77;;
78296;SDS011;67555;47.660;19.622;2023-07-22T14:52:26;1.75;;;1.27;;
78296;SDS011;67555;47.660;19.622;2023-07-22T14:54:52;1.20;;;1.10;;
78296;SDS011;67555;47.660;19.622;2023-07-22T14:57:18;0.88;;;0.88;;
78296;SDS011;67555;47.660;19.622;2023-07-22T14:59:44;1.50;;;1.23;;
78296;SDS011;67555;47.660;19.622;2023-07-22T15:02:10;1.00;;;0.90;;